sensor_id;sensor_type;location;lat;lon;timestamp;temperature;humidity
3699;DHT22;1865;50.918;7.092;2023-05-07T00:00:11;18.40;63.00
3699;DHT22;1865;50.918;7.092;2023-05-07T00:02:37;18.40;63.20
3699;DHT22;1865;50.918;7.092;2023-05-07T00:05:03;18.30;62.70
3699;DHT22;1865;50.918;7.092;2023-05-07T00:07:29;18.30;63.30
3699;DHT22;1865;50.918;7.092;2023-05-07T00:09:54;18.40;63.30
3699;DHT22;1865;50.918;7.092;2023-05-07T00:12:20;18.40;63.30
3699;DHT22;1865;50.918;7.092;2023-05-07T00:14:46;18.30;63.10
3699;DHT22;1865;50.918;7.092;2023-05-07T00:17:11;18.30;63.40
3699;DHT22;1865;50.918;7.092;2023-05-07T00:19:37;18.30;63.50
3699;DHT22;1865;50.918;7.092;2023-05-07T00:22:02;18.30;63.70
3699;DHT22;1865;50.918;7.092;2023-05-07T00:24:28;18.30;63.40
3699;DHT22;1865;50.918;7.092;2023-05-07T00:26:53;18.30;63.40
3699;DHT22;1865;50.918;7.092;2023-05-07T00:29:19;18.30;63.50
3699;DHT22;1865;50.918;7.092;2023-05-07T00:31:44;18.30;63.50
3699;DHT22;1865;50.918;7.092;2023-05-07T00:34:10;18.20;63.30
3699;DHT22;1865;50.918;7.092;2023-05-07T00:36:35;18.20;63.30
3699;DHT22;1865;50.918;7.092;2023-05-07T00:39:01;18.20;63.40
3699;DHT22;1865;50.918;7.092;2023-05-07T00:41:29;18.20;63.30
3699;DHT22;1865;50.918;7.092;2023-05-07T00:43:56;18.20;63.30
3699;DHT22;1865;50.918;7.092;2023-05-07T00:46:22;18.20;64.30
3699;DHT22;1865;50.918;7.092;2023-05-07T00:48:48;18.20;63.50
3699;DHT22;1865;50.918;7.092;2023-05-07T00:51:15;18.20;63.60
3699;DHT22;1865;50.918;7.092;2023-05-07T00:53:41;18.10;63.40
3699;DHT22;1865;50.918;7.092;2023-05-07T00:56:06;18.20;63.70
3699;DHT22;1865;50.918;7.092;2023-05-07T00:58:33;18.10;63.60
3699;DHT22;1865;50.918;7.092;2023-05-07T01:00:59;18.20;63.60
3699;DHT22;1865;50.918;7.092;2023-05-07T01:03:25;18.10;64.40
3699;DHT22;1865;50.918;7.092;2023-05-07T01:05:52;18.10;63.60
3699;DHT22;1865;50.918;7.092;2023-05-07T01:08:20;18.10;63.30
3699;DHT22;1865;50.918;7.092;2023-05-07T01:10:47;18.10;63.60
3699;DHT22;1865;50.918;7.092;2023-05-07T01:13:13;18.10;63.80
3699;DHT22;1865;50.918;7.092;2023-05-07T01:15:39;18.10;63.50
3699;DHT22;1865;50.918;7.092;2023-05-07T01:18:08;18.00;63.70
3699;DHT22;1865;50.918;7.092;2023-05-07T01:20:33;18.10;63.80
3699;DHT22;1865;50.918;7.092;2023-05-07T01:23:00;18.10;63.70
3699;DHT22;1865;50.918;7.092;2023-05-07T01:25:26;18.00;63.20
3699;DHT22;1865;50.918;7.092;2023-05-07T01:27:52;18.00;63.70
3699;DHT22;1865;50.918;7.092;2023-05-07T01:30:20;18.00;63.70
3699;DHT22;1865;50.918;7.092;2023-05-07T01:32:53;18.00;63.60
3699;DHT22;1865;50.918;7.092;2023-05-07T01:35:27;18.00;63.50
3699;DHT22;1865;50.918;7.092;2023-05-07T01:37:54;18.00;63.70
3699;DHT22;1865;50.918;7.092;2023-05-07T01:40:20;18.00;63.50
3699;DHT22;1865;50.918;7.092;2023-05-07T01:42:47;18.10;63.70
3699;DHT22;1865;50.918;7.092;2023-05-07T01:45:13;18.10;63.80
3699;DHT22;1865;50.918;7.092;2023-05-07T01:47:39;18.10;63.50
3699;DHT22;1865;50.918;7.092;2023-05-07T01:50:08;18.10;63.40
3699;DHT22;1865;50.918;7.092;2023-05-07T01:52:37;18.10;63.50
3699;DHT22;1865;50.918;7.092;2023-05-07T01:55:03;18.10;63.40
3699;DHT22;1865;50.918;7.092;2023-05-07T01:57:30;18.10;63.40
3699;DHT22;1865;50.918;7.092;2023-05-07T01:59:55;18.20;63.50
3699;DHT22;1865;50.918;7.092;2023-05-07T02:02:21;18.10;63.40
3699;DHT22;1865;50.918;7.092;2023-05-07T02:04:46;18.10;63.40
3699;DHT22;1865;50.918;7.092;2023-05-07T02:07:12;18.20;63.40
3699;DHT22;1865;50.918;7.092;2023-05-07T02:09:38;18.20;63.30
3699;DHT22;1865;50.918;7.092;2023-05-07T02:12:03;18.20;63.30
3699;DHT22;1865;50.918;7.092;2023-05-07T02:14:29;18.20;63.20
3699;DHT22;1865;50.918;7.092;2023-05-07T02:16:54;18.20;63.30
3699;DHT22;1865;50.918;7.092;2023-05-07T02:19:20;18.20;63.10
3699;DHT22;1865;50.918;7.092;2023-05-07T02:21:46;18.20;63.00
3699;DHT22;1865;50.918;7.092;2023-05-07T02:24:12;18.20;63.10
3699;DHT22;1865;50.918;7.092;2023-05-07T02:26:39;18.20;63.10
3699;DHT22;1865;50.918;7.092;2023-05-07T02:29:04;18.20;63.20
3699;DHT22;1865;50.918;7.092;2023-05-07T02:31:30;18.20;63.10
3699;DHT22;1865;50.918;7.092;2023-05-07T02:33:55;18.20;62.90
3699;DHT22;1865;50.918;7.092;2023-05-07T02:36:21;18.20;63.20
3699;DHT22;1865;50.918;7.092;2023-05-07T02:38:46;18.10;63.40
3699;DHT22;1865;50.918;7.092;2023-05-07T02:41:12;18.10;63.40
3699;DHT22;1865;50.918;7.092;2023-05-07T02:43:37;18.10;63.30
3699;DHT22;1865;50.918;7.092;2023-05-07T02:46:07;18.10;62.90
3699;DHT22;1865;50.918;7.092;2023-05-07T02:48:33;18.00;63.70
3699;DHT22;1865;50.918;7.092;2023-05-07T02:51:00;18.00;63.70
3699;DHT22;1865;50.918;7.092;2023-05-07T02:53:26;18.10;63.80
3699;DHT22;1865;50.918;7.092;2023-05-07T02:55:53;18.10;63.40
3699;DHT22;1865;50.918;7.092;2023-05-07T02:58:19;18.10;63.30
3699;DHT22;1865;50.918;7.092;2023-05-07T03:00:44;18.20;63.10
3699;DHT22;1865;50.918;7.092;2023-05-07T03:03:10;18.10;63.10
3699;DHT22;1865;50.918;7.092;2023-05-07T03:05:36;18.00;63.20
3699;DHT22;1865;50.918;7.092;2023-05-07T03:08:01;18.00;63.20
3699;DHT22;1865;50.918;7.092;2023-05-07T03:10:27;18.00;63.40
3699;DHT22;1865;50.918;7.092;2023-05-07T03:12:52;18.00;64.40
3699;DHT22;1865;50.918;7.092;2023-05-07T03:15:18;18.10;63.40
3699;DHT22;1865;50.918;7.092;2023-05-07T03:17:43;18.00;63.00
3699;DHT22;1865;50.918;7.092;2023-05-07T03:20:09;18.00;62.90
3699;DHT22;1865;50.918;7.092;2023-05-07T03:22:36;18.00;63.40
3699;DHT22;1865;50.918;7.092;2023-05-07T03:25:01;18.00;63.40
3699;DHT22;1865;50.918;7.092;2023-05-07T03:27:27;18.00;63.40
3699;DHT22;1865;50.918;7.092;2023-05-07T03:29:52;18.10;63.50
3699;DHT22;1865;50.918;7.092;2023-05-07T03:32:18;18.00;63.40
3699;DHT22;1865;50.918;7.092;2023-05-07T03:34:43;18.00;63.70
3699;DHT22;1865;50.918;7.092;2023-05-07T03:37:09;18.00;63.70
3699;DHT22;1865;50.918;7.092;2023-05-07T03:39:34;18.00;63.70
3699;DHT22;1865;50.918;7.092;2023-05-07T03:42:00;17.90;63.60
3699;DHT22;1865;50.918;7.092;2023-05-07T03:44:26;17.90;63.60
3699;DHT22;1865;50.918;7.092;2023-05-07T03:46:51;18.00;63.60
3699;DHT22;1865;50.918;7.092;2023-05-07T03:49:17;18.00;63.60
3699;DHT22;1865;50.918;7.092;2023-05-07T03:51:42;17.90;63.30
3699;DHT22;1865;50.918;7.092;2023-05-07T03:54:08;18.00;63.40
3699;DHT22;1865;50.918;7.092;2023-05-07T03:56:34;17.90;63.50
3699;DHT22;1865;50.918;7.092;2023-05-07T03:59:00;17.90;63.10
3699;DHT22;1865;50.918;7.092;2023-05-07T04:01:25;17.90;63.50
3699;DHT22;1865;50.918;7.092;2023-05-07T04:03:51;17.90;63.50
3699;DHT22;1865;50.918;7.092;2023-05-07T04:06:17;18.00;63.20
3699;DHT22;1865;50.918;7.092;2023-05-07T04:08:43;17.90;63.20
3699;DHT22;1865;50.918;7.092;2023-05-07T04:11:08;17.90;63.50
3699;DHT22;1865;50.918;7.092;2023-05-07T04:13:34;17.90;63.40
3699;DHT22;1865;50.918;7.092;2023-05-07T04:16:01;17.80;63.30
3699;DHT22;1865;50.918;7.092;2023-05-07T04:18:27;17.90;63.40
3699;DHT22;1865;50.918;7.092;2023-05-07T04:20:53;17.90;63.30
3699;DHT22;1865;50.918;7.092;2023-05-07T04:23:19;17.90;63.40
3699;DHT22;1865;50.918;7.092;2023-05-07T04:25:44;17.90;63.30
3699;DHT22;1865;50.918;7.092;2023-05-07T04:28:10;17.90;63.20
3699;DHT22;1865;50.918;7.092;2023-05-07T04:30:36;17.90;63.30
3699;DHT22;1865;50.918;7.092;2023-05-07T04:33:02;17.90;63.30
3699;DHT22;1865;50.918;7.092;2023-05-07T04:35:28;17.90;63.50
3699;DHT22;1865;50.918;7.092;2023-05-07T04:37:53;18.00;63.50
3699;DHT22;1865;50.918;7.092;2023-05-07T04:40:19;18.00;63.40
3699;DHT22;1865;50.918;7.092;2023-05-07T04:42:44;18.10;63.40
3699;DHT22;1865;50.918;7.092;2023-05-07T04:45:10;18.10;63.10
3699;DHT22;1865;50.918;7.092;2023-05-07T04:47:36;18.00;63.10
3699;DHT22;1865;50.918;7.092;2023-05-07T04:50:01;18.00;63.10
3699;DHT22;1865;50.918;7.092;2023-05-07T04:52:27;18.00;63.30
3699;DHT22;1865;50.918;7.092;2023-05-07T04:54:52;18.10;63.40
3699;DHT22;1865;50.918;7.092;2023-05-07T04:57:18;18.10;63.40
3699;DHT22;1865;50.918;7.092;2023-05-07T04:59:44;18.20;63.40
3699;DHT22;1865;50.918;7.092;2023-05-07T05:02:10;18.20;63.30
3699;DHT22;1865;50.918;7.092;2023-05-07T05:04:36;18.20;63.40
3699;DHT22;1865;50.918;7.092;2023-05-07T05:07:02;18.20;63.30
3699;DHT22;1865;50.918;7.092;2023-05-07T05:09:29;18.20;63.20
3699;DHT22;1865;50.918;7.092;2023-05-07T05:11:55;18.30;63.40
3699;DHT22;1865;50.918;7.092;2023-05-07T05:14:20;18.30;63.30
3699;DHT22;1865;50.918;7.092;2023-05-07T05:16:46;18.40;63.20
3699;DHT22;1865;50.918;7.092;2023-05-07T05:19:11;18.40;63.10
3699;DHT22;1865;50.918;7.092;2023-05-07T05:21:37;18.50;63.00
3699;DHT22;1865;50.918;7.092;2023-05-07T05:24:02;18.40;62.80
3699;DHT22;1865;50.918;7.092;2023-05-07T05:26:28;18.60;62.80
3699;DHT22;1865;50.918;7.092;2023-05-07T05:28:54;18.60;62.60
3699;DHT22;1865;50.918;7.092;2023-05-07T05:31:19;18.70;62.60
3699;DHT22;1865;50.918;7.092;2023-05-07T05:33:45;18.70;62.60
3699;DHT22;1865;50.918;7.092;2023-05-07T05:36:10;18.80;62.50
3699;DHT22;1865;50.918;7.092;2023-05-07T05:38:37;18.80;62.50
3699;DHT22;1865;50.918;7.092;2023-05-07T05:41:02;18.80;62.30
3699;DHT22;1865;50.918;7.092;2023-05-07T05:43:28;18.90;62.50
3699;DHT22;1865;50.918;7.092;2023-05-07T05:45:55;18.90;62.50
3699;DHT22;1865;50.918;7.092;2023-05-07T05:48:21;19.00;62.50
3699;DHT22;1865;50.918;7.092;2023-05-07T05:50:46;19.10;62.50
3699;DHT22;1865;50.918;7.092;2023-05-07T05:53:12;19.10;62.40
3699;DHT22;1865;50.918;7.092;2023-05-07T05:55:37;19.20;62.20
3699;DHT22;1865;50.918;7.092;2023-05-07T05:58:03;19.20;61.90
3699;DHT22;1865;50.918;7.092;2023-05-07T06:00:29;19.30;61.80
3699;DHT22;1865;50.918;7.092;2023-05-07T06:02:54;19.30;61.90
3699;DHT22;1865;50.918;7.092;2023-05-07T06:05:20;19.30;61.80
3699;DHT22;1865;50.918;7.092;2023-05-07T06:07:45;19.30;61.70
3699;DHT22;1865;50.918;7.092;2023-05-07T06:10:11;19.40;61.60
3699;DHT22;1865;50.918;7.092;2023-05-07T06:12:36;19.50;61.60
3699;DHT22;1865;50.918;7.092;2023-05-07T06:15:02;19.50;61.50
3699;DHT22;1865;50.918;7.092;2023-05-07T06:17:28;19.50;61.60
3699;DHT22;1865;50.918;7.092;2023-05-07T06:19:53;19.50;61.40
3699;DHT22;1865;50.918;7.092;2023-05-07T06:22:19;19.60;61.70
3699;DHT22;1865;50.918;7.092;2023-05-07T06:24:45;19.60;61.70
3699;DHT22;1865;50.918;7.092;2023-05-07T06:27:11;19.70;61.50
3699;DHT22;1865;50.918;7.092;2023-05-07T06:29:36;19.70;61.40
3699;DHT22;1865;50.918;7.092;2023-05-07T06:32:13;19.70;61.20
3699;DHT22;1865;50.918;7.092;2023-05-07T06:34:39;19.80;61.30
3699;DHT22;1865;50.918;7.092;2023-05-07T06:37:05;19.90;61.50
3699;DHT22;1865;50.918;7.092;2023-05-07T06:39:31;20.00;61.10
3699;DHT22;1865;50.918;7.092;2023-05-07T06:41:57;20.00;60.90
3699;DHT22;1865;50.918;7.092;2023-05-07T06:44:23;20.10;60.80
3699;DHT22;1865;50.918;7.092;2023-05-07T06:46:48;20.10;60.40
3699;DHT22;1865;50.918;7.092;2023-05-07T06:49:14;20.20;60.10
3699;DHT22;1865;50.918;7.092;2023-05-07T06:51:40;20.30;60.10
3699;DHT22;1865;50.918;7.092;2023-05-07T06:54:06;20.30;60.10
3699;DHT22;1865;50.918;7.092;2023-05-07T06:56:32;20.40;59.70
3699;DHT22;1865;50.918;7.092;2023-05-07T06:58:59;20.40;59.80
3699;DHT22;1865;50.918;7.092;2023-05-07T07:01:25;20.50;59.50
3699;DHT22;1865;50.918;7.092;2023-05-07T07:03:50;20.50;59.30
3699;DHT22;1865;50.918;7.092;2023-05-07T07:06:16;20.60;59.00
3699;DHT22;1865;50.918;7.092;2023-05-07T07:08:42;20.50;58.50
3699;DHT22;1865;50.918;7.092;2023-05-07T07:11:08;20.60;58.70
3699;DHT22;1865;50.918;7.092;2023-05-07T07:13:33;20.60;58.20
3699;DHT22;1865;50.918;7.092;2023-05-07T07:16:00;20.50;57.80
3699;DHT22;1865;50.918;7.092;2023-05-07T07:18:25;20.50;57.50
3699;DHT22;1865;50.918;7.092;2023-05-07T07:20:51;20.50;56.90
3699;DHT22;1865;50.918;7.092;2023-05-07T07:23:16;20.60;57.20
3699;DHT22;1865;50.918;7.092;2023-05-07T07:25:42;20.80;58.10
3699;DHT22;1865;50.918;7.092;2023-05-07T07:28:07;20.90;57.80
3699;DHT22;1865;50.918;7.092;2023-05-07T07:30:33;21.10;57.60
3699;DHT22;1865;50.918;7.092;2023-05-07T07:32:59;21.10;57.00
3699;DHT22;1865;50.918;7.092;2023-05-07T07:35:34;21.10;54.90
3699;DHT22;1865;50.918;7.092;2023-05-07T07:37:59;21.00;55.30
3699;DHT22;1865;50.918;7.092;2023-05-07T07:40:25;21.00;55.50
3699;DHT22;1865;50.918;7.092;2023-05-07T07:42:52;21.00;55.30
3699;DHT22;1865;50.918;7.092;2023-05-07T07:45:17;20.90;55.20
3699;DHT22;1865;50.918;7.092;2023-05-07T07:47:43;21.00;55.30
3699;DHT22;1865;50.918;7.092;2023-05-07T07:50:09;21.00;55.50
3699;DHT22;1865;50.918;7.092;2023-05-07T07:52:34;21.00;55.40
3699;DHT22;1865;50.918;7.092;2023-05-07T07:55:00;21.20;55.90
3699;DHT22;1865;50.918;7.092;2023-05-07T07:57:26;21.20;54.70
3699;DHT22;1865;50.918;7.092;2023-05-07T07:59:51;21.30;54.30
3699;DHT22;1865;50.918;7.092;2023-05-07T08:02:18;21.60;55.10
3699;DHT22;1865;50.918;7.092;2023-05-07T08:04:43;21.70;52.50
3699;DHT22;1865;50.918;7.092;2023-05-07T08:07:10;21.70;52.90
3699;DHT22;1865;50.918;7.092;2023-05-07T08:09:39;21.70;52.60
3699;DHT22;1865;50.918;7.092;2023-05-07T08:12:05;21.80;52.90
3699;DHT22;1865;50.918;7.092;2023-05-07T08:14:31;22.00;53.20
3699;DHT22;1865;50.918;7.092;2023-05-07T08:16:56;22.10;52.50
3699;DHT22;1865;50.918;7.092;2023-05-07T08:19:22;22.20;52.10
3699;DHT22;1865;50.918;7.092;2023-05-07T08:21:48;22.30;52.10
3699;DHT22;1865;50.918;7.092;2023-05-07T08:24:17;22.40;51.20
3699;DHT22;1865;50.918;7.092;2023-05-07T08:26:43;22.40;51.00
3699;DHT22;1865;50.918;7.092;2023-05-07T08:29:09;22.50;51.10
3699;DHT22;1865;50.918;7.092;2023-05-07T08:31:35;22.50;50.90
3699;DHT22;1865;50.918;7.092;2023-05-07T08:34:01;22.50;49.40
3699;DHT22;1865;50.918;7.092;2023-05-07T08:36:26;22.50;50.10
3699;DHT22;1865;50.918;7.092;2023-05-07T08:38:52;22.60;50.10
3699;DHT22;1865;50.918;7.092;2023-05-07T08:41:18;22.70;49.60
3699;DHT22;1865;50.918;7.092;2023-05-07T08:43:47;22.60;48.50
3699;DHT22;1865;50.918;7.092;2023-05-07T08:46:17;22.60;49.20
3699;DHT22;1865;50.918;7.092;2023-05-07T08:48:44;22.70;49.20
3699;DHT22;1865;50.918;7.092;2023-05-07T08:51:12;22.70;50.10
3699;DHT22;1865;50.918;7.092;2023-05-07T08:53:40;22.80;49.10
3699;DHT22;1865;50.918;7.092;2023-05-07T08:56:08;22.90;50.20
3699;DHT22;1865;50.918;7.092;2023-05-07T08:58:33;23.00;49.20
3699;DHT22;1865;50.918;7.092;2023-05-07T09:01:07;23.00;49.20
3699;DHT22;1865;50.918;7.092;2023-05-07T09:03:33;23.10;49.30
3699;DHT22;1865;50.918;7.092;2023-05-07T09:05:59;23.10;49.30
3699;DHT22;1865;50.918;7.092;2023-05-07T09:08:26;23.10;48.90
3699;DHT22;1865;50.918;7.092;2023-05-07T09:10:52;23.10;47.90
3699;DHT22;1865;50.918;7.092;2023-05-07T09:13:18;23.10;47.80
3699;DHT22;1865;50.918;7.092;2023-05-07T09:15:43;23.20;48.80
3699;DHT22;1865;50.918;7.092;2023-05-07T09:18:09;23.20;47.60
3699;DHT22;1865;50.918;7.092;2023-05-07T09:20:36;23.20;46.10
3699;DHT22;1865;50.918;7.092;2023-05-07T09:23:02;23.30;46.80
3699;DHT22;1865;50.918;7.092;2023-05-07T09:25:29;23.50;47.50
3699;DHT22;1865;50.918;7.092;2023-05-07T09:27:55;23.60;46.70
3699;DHT22;1865;50.918;7.092;2023-05-07T09:30:21;23.70;46.70
3699;DHT22;1865;50.918;7.092;2023-05-07T09:32:46;23.60;44.70
3699;DHT22;1865;50.918;7.092;2023-05-07T09:35:17;23.70;45.30
3699;DHT22;1865;50.918;7.092;2023-05-07T09:37:43;23.80;45.90
3699;DHT22;1865;50.918;7.092;2023-05-07T09:40:20;23.90;44.60
3699;DHT22;1865;50.918;7.092;2023-05-07T09:42:46;23.80;44.00
3699;DHT22;1865;50.918;7.092;2023-05-07T09:45:12;23.80;44.80
3699;DHT22;1865;50.918;7.092;2023-05-07T09:47:39;24.00;44.20
3699;DHT22;1865;50.918;7.092;2023-05-07T09:50:08;24.10;44.30
3699;DHT22;1865;50.918;7.092;2023-05-07T09:52:36;24.30;44.40
3699;DHT22;1865;50.918;7.092;2023-05-07T09:55:02;24.50;44.70
3699;DHT22;1865;50.918;7.092;2023-05-07T09:57:29;24.60;43.70
3699;DHT22;1865;50.918;7.092;2023-05-07T09:59:56;24.60;43.20
3699;DHT22;1865;50.918;7.092;2023-05-07T10:02:23;24.60;43.60
3699;DHT22;1865;50.918;7.092;2023-05-07T10:04:51;24.60;44.80
3699;DHT22;1865;50.918;7.092;2023-05-07T10:07:17;24.60;42.60
3699;DHT22;1865;50.918;7.092;2023-05-07T10:09:43;24.70;42.60
3699;DHT22;1865;50.918;7.092;2023-05-07T10:12:10;24.60;43.00
3699;DHT22;1865;50.918;7.092;2023-05-07T10:14:36;24.60;42.10
3699;DHT22;1865;50.918;7.092;2023-05-07T10:17:02;24.70;42.20
3699;DHT22;1865;50.918;7.092;2023-05-07T10:19:29;24.70;41.90
3699;DHT22;1865;50.918;7.092;2023-05-07T10:21:56;24.80;41.80
3699;DHT22;1865;50.918;7.092;2023-05-07T10:24:36;24.90;41.80
3699;DHT22;1865;50.918;7.092;2023-05-07T10:27:10;25.00;42.40
3699;DHT22;1865;50.918;7.092;2023-05-07T10:29:47;25.00;41.30
3699;DHT22;1865;50.918;7.092;2023-05-07T10:32:37;25.00;41.50
3699;DHT22;1865;50.918;7.092;2023-05-07T10:35:09;25.20;41.00
3699;DHT22;1865;50.918;7.092;2023-05-07T10:37:35;25.10;41.90
3699;DHT22;1865;50.918;7.092;2023-05-07T10:40:02;25.20;41.80
3699;DHT22;1865;50.918;7.092;2023-05-07T10:42:27;25.20;41.70
3699;DHT22;1865;50.918;7.092;2023-05-07T10:44:53;25.40;41.60
3699;DHT22;1865;50.918;7.092;2023-05-07T10:47:18;25.60;40.40
3699;DHT22;1865;50.918;7.092;2023-05-07T10:52:22;25.40;41.00
3699;DHT22;1865;50.918;7.092;2023-05-07T10:57:42;25.60;39.60
3699;DHT22;1865;50.918;7.092;2023-05-07T11:05:33;26.20;35.90
3699;DHT22;1865;50.918;7.092;2023-05-07T11:08:03;26.10;37.00
3699;DHT22;1865;50.918;7.092;2023-05-07T11:10:53;26.10;36.60
3699;DHT22;1865;50.918;7.092;2023-05-07T11:13:45;26.30;37.10
3699;DHT22;1865;50.918;7.092;2023-05-07T11:16:24;26.30;36.30
3699;DHT22;1865;50.918;7.092;2023-05-07T11:18:54;26.50;36.60
3699;DHT22;1865;50.918;7.092;2023-05-07T11:21:34;26.80;36.90
3699;DHT22;1865;50.918;7.092;2023-05-07T11:24:00;27.10;35.50
3699;DHT22;1865;50.918;7.092;2023-05-07T11:26:28;27.20;35.80
3699;DHT22;1865;50.918;7.092;2023-05-07T11:28:54;27.40;35.30
3699;DHT22;1865;50.918;7.092;2023-05-07T11:31:25;27.60;35.00
3699;DHT22;1865;50.918;7.092;2023-05-07T11:33:52;27.40;33.70
3699;DHT22;1865;50.918;7.092;2023-05-07T11:36:18;27.30;34.00
3699;DHT22;1865;50.918;7.092;2023-05-07T11:38:44;27.50;32.90
3699;DHT22;1865;50.918;7.092;2023-05-07T11:41:10;27.70;32.10
3699;DHT22;1865;50.918;7.092;2023-05-07T11:43:35;28.00;32.40
3699;DHT22;1865;50.918;7.092;2023-05-07T11:46:11;27.90;31.80
3699;DHT22;1865;50.918;7.092;2023-05-07T11:48:38;27.70;33.40
3699;DHT22;1865;50.918;7.092;2023-05-07T11:51:05;27.70;34.20
3699;DHT22;1865;50.918;7.092;2023-05-07T11:53:39;27.70;34.40
3699;DHT22;1865;50.918;7.092;2023-05-07T11:56:09;27.50;34.40
3699;DHT22;1865;50.918;7.092;2023-05-07T11:58:35;27.30;34.20
3699;DHT22;1865;50.918;7.092;2023-05-07T12:01:01;27.20;34.10
3699;DHT22;1865;50.918;7.092;2023-05-07T12:03:27;27.10;35.50
3699;DHT22;1865;50.918;7.092;2023-05-07T12:05:52;27.10;35.10
3699;DHT22;1865;50.918;7.092;2023-05-07T12:08:19;27.10;33.90
3699;DHT22;1865;50.918;7.092;2023-05-07T12:10:47;26.80;32.30
3699;DHT22;1865;50.918;7.092;2023-05-07T12:13:24;26.70;33.10
3699;DHT22;1865;50.918;7.092;2023-05-07T12:15:53;26.60;34.20
3699;DHT22;1865;50.918;7.092;2023-05-07T12:18:20;26.70;34.50
3699;DHT22;1865;50.918;7.092;2023-05-07T12:20:46;26.70;35.30
3699;DHT22;1865;50.918;7.092;2023-05-07T12:23:13;26.70;35.20
3699;DHT22;1865;50.918;7.092;2023-05-07T12:25:39;26.70;34.70
3699;DHT22;1865;50.918;7.092;2023-05-07T12:28:07;26.70;34.80
3699;DHT22;1865;50.918;7.092;2023-05-07T12:30:37;26.70;35.20
3699;DHT22;1865;50.918;7.092;2023-05-07T12:33:03;26.70;35.10
3699;DHT22;1865;50.918;7.092;2023-05-07T12:35:30;26.70;35.00
3699;DHT22;1865;50.918;7.092;2023-05-07T12:37:59;26.70;35.60
3699;DHT22;1865;50.918;7.092;2023-05-07T12:40:41;26.60;36.20
3699;DHT22;1865;50.918;7.092;2023-05-07T12:43:07;26.50;36.30
3699;DHT22;1865;50.918;7.092;2023-05-07T12:45:37;26.40;36.40
3699;DHT22;1865;50.918;7.092;2023-05-07T12:48:04;26.40;35.90
3699;DHT22;1865;50.918;7.092;2023-05-07T12:50:33;26.40;35.50
3699;DHT22;1865;50.918;7.092;2023-05-07T12:52:59;26.30;35.70
3699;DHT22;1865;50.918;7.092;2023-05-07T12:55:25;26.30;36.00
3699;DHT22;1865;50.918;7.092;2023-05-07T12:57:51;26.20;36.80
3699;DHT22;1865;50.918;7.092;2023-05-07T13:00:31;26.20;36.80
3699;DHT22;1865;50.918;7.092;2023-05-07T13:02:58;26.20;36.70
3699;DHT22;1865;50.918;7.092;2023-05-07T13:05:24;26.20;36.70
3699;DHT22;1865;50.918;7.092;2023-05-07T13:07:53;26.10;36.60
3699;DHT22;1865;50.918;7.092;2023-05-07T13:10:19;26.20;36.50
3699;DHT22;1865;50.918;7.092;2023-05-07T13:12:44;26.30;36.60
3699;DHT22;1865;50.918;7.092;2023-05-07T13:15:10;26.30;36.10
3699;DHT22;1865;50.918;7.092;2023-05-07T13:17:35;26.50;35.30
3699;DHT22;1865;50.918;7.092;2023-05-07T13:20:01;26.50;35.50
3699;DHT22;1865;50.918;7.092;2023-05-07T13:22:26;26.60;35.50
3699;DHT22;1865;50.918;7.092;2023-05-07T13:24:52;26.50;35.60
3699;DHT22;1865;50.918;7.092;2023-05-07T13:27:17;26.50;34.70
3699;DHT22;1865;50.918;7.092;2023-05-07T13:29:44;26.50;35.10
3699;DHT22;1865;50.918;7.092;2023-05-07T13:32:09;26.40;35.40
3699;DHT22;1865;50.918;7.092;2023-05-07T13:34:35;26.30;35.60
3699;DHT22;1865;50.918;7.092;2023-05-07T13:37:02;26.20;35.40
3699;DHT22;1865;50.918;7.092;2023-05-07T13:39:27;26.10;36.40
3699;DHT22;1865;50.918;7.092;2023-05-07T13:41:53;25.90;36.20
3699;DHT22;1865;50.918;7.092;2023-05-07T13:44:18;25.80;36.70
3699;DHT22;1865;50.918;7.092;2023-05-07T13:46:44;25.80;36.50
3699;DHT22;1865;50.918;7.092;2023-05-07T13:49:09;25.80;36.70
3699;DHT22;1865;50.918;7.092;2023-05-07T13:51:36;25.80;36.30
3699;DHT22;1865;50.918;7.092;2023-05-07T13:54:02;25.60;37.90
3699;DHT22;1865;50.918;7.092;2023-05-07T13:56:28;25.40;40.90
3699;DHT22;1865;50.918;7.092;2023-05-07T13:58:56;25.20;48.40
3699;DHT22;1865;50.918;7.092;2023-05-07T14:01:21;24.70;51.00
3699;DHT22;1865;50.918;7.092;2023-05-07T14:03:47;23.50;53.90
3699;DHT22;1865;50.918;7.092;2023-05-07T14:06:12;23.00;54.10
3699;DHT22;1865;50.918;7.092;2023-05-07T14:08:38;22.60;55.50
3699;DHT22;1865;50.918;7.092;2023-05-07T14:11:03;22.30;55.50
3699;DHT22;1865;50.918;7.092;2023-05-07T14:13:29;22.10;56.30
3699;DHT22;1865;50.918;7.092;2023-05-07T14:15:56;21.90;57.30
3699;DHT22;1865;50.918;7.092;2023-05-07T14:18:22;21.70;58.30
3699;DHT22;1865;50.918;7.092;2023-05-07T14:20:47;21.70;58.80
3699;DHT22;1865;50.918;7.092;2023-05-07T14:23:14;21.70;58.90
3699;DHT22;1865;50.918;7.092;2023-05-07T14:25:39;21.70;59.50
3699;DHT22;1865;50.918;7.092;2023-05-07T14:28:06;21.70;59.60
3699;DHT22;1865;50.918;7.092;2023-05-07T14:30:31;21.70;59.70
3699;DHT22;1865;50.918;7.092;2023-05-07T14:32:57;21.80;60.00
3699;DHT22;1865;50.918;7.092;2023-05-07T14:35:23;21.80;60.20
3699;DHT22;1865;50.918;7.092;2023-05-07T14:37:48;21.80;60.10
3699;DHT22;1865;50.918;7.092;2023-05-07T14:40:14;21.80;60.40
3699;DHT22;1865;50.918;7.092;2023-05-07T14:42:40;21.80;60.70
3699;DHT22;1865;50.918;7.092;2023-05-07T14:45:06;21.90;60.60
3699;DHT22;1865;50.918;7.092;2023-05-07T14:47:31;22.00;60.60
3699;DHT22;1865;50.918;7.092;2023-05-07T14:49:58;22.10;60.60
3699;DHT22;1865;50.918;7.092;2023-05-07T14:52:24;22.10;60.80
3699;DHT22;1865;50.918;7.092;2023-05-07T14:54:51;22.20;60.60
3699;DHT22;1865;50.918;7.092;2023-05-07T14:57:16;22.20;60.30
3699;DHT22;1865;50.918;7.092;2023-05-07T14:59:43;22.30;60.20
3699;DHT22;1865;50.918;7.092;2023-05-07T15:02:10;22.30;59.80
3699;DHT22;1865;50.918;7.092;2023-05-07T15:04:36;22.30;60.00
3699;DHT22;1865;50.918;7.092;2023-05-07T15:07:03;22.40;60.00
3699;DHT22;1865;50.918;7.092;2023-05-07T15:09:29;22.40;59.70
3699;DHT22;1865;50.918;7.092;2023-05-07T15:11:55;22.40;59.80
3699;DHT22;1865;50.918;7.092;2023-05-07T15:14:20;22.40;60.10
3699;DHT22;1865;50.918;7.092;2023-05-07T15:16:47;22.50;60.40
3699;DHT22;1865;50.918;7.092;2023-05-07T15:19:13;22.50;60.20
3699;DHT22;1865;50.918;7.092;2023-05-07T15:21:40;22.50;60.40
3699;DHT22;1865;50.918;7.092;2023-05-07T15:24:06;22.60;60.60
3699;DHT22;1865;50.918;7.092;2023-05-07T15:26:31;22.60;60.30
3699;DHT22;1865;50.918;7.092;2023-05-07T15:28:57;22.60;60.00
3699;DHT22;1865;50.918;7.092;2023-05-07T15:31:23;22.60;60.00
3699;DHT22;1865;50.918;7.092;2023-05-07T15:33:49;22.60;60.10
3699;DHT22;1865;50.918;7.092;2023-05-07T15:36:17;22.50;60.40
3699;DHT22;1865;50.918;7.092;2023-05-07T15:38:42;22.50;60.40
3699;DHT22;1865;50.918;7.092;2023-05-07T15:41:08;22.50;59.50
3699;DHT22;1865;50.918;7.092;2023-05-07T15:43:44;22.40;59.10
3699;DHT22;1865;50.918;7.092;2023-05-07T15:46:11;22.50;59.00
3699;DHT22;1865;50.918;7.092;2023-05-07T15:48:36;22.40;59.10
3699;DHT22;1865;50.918;7.092;2023-05-07T15:51:02;22.50;59.50
3699;DHT22;1865;50.918;7.092;2023-05-07T15:53:29;22.50;59.40
3699;DHT22;1865;50.918;7.092;2023-05-07T15:55:55;22.50;59.30
3699;DHT22;1865;50.918;7.092;2023-05-07T15:58:21;22.50;58.90
3699;DHT22;1865;50.918;7.092;2023-05-07T16:00:46;22.50;58.80
3699;DHT22;1865;50.918;7.092;2023-05-07T16:03:12;22.50;59.00
3699;DHT22;1865;50.918;7.092;2023-05-07T16:05:37;22.50;58.80
3699;DHT22;1865;50.918;7.092;2023-05-07T16:08:03;22.50;58.60